Terminal Aerodrome Forecast
Issued by NWS

Home | Current Version | Previous Version | Text Only | Print | Product List | Glossary On
Versions: 1 2 3 4 5 6 7 8 9 10 11 12 13 14 15 16 17 18
000
FTUS41 KBOX 252320
TAFACK
TAF
KACK 252320Z 2600/2624 10019G27KT 3SM -SHRA BR OVC003
     FM260200 10018G26KT 3SM -SHRA BR OVC003 WS020/14045KT
     FM260600 11018G27KT 2SM -SHRA BR OVC003 WS020/15055KT
     FM261300 13018G30KT 2SM -RA BR OVC008 WS020/16050KT
     FM261600 13017G25KT 1 1/2SM -RA BR OVC008 WS020/17045KT
     FM261900 14015KT 2SM BR VCSH OVC008 WS020/19040KT
     FM262300 13013KT 1 1/2SM BR VCSH OVC008=

USA.gov is the U.S. government's official web portal to all federal, state and local government web resources and services.